Dorton, Kentucky
Current Conditions -  °F | °C
As of 5:35 AM on Sunday 28 Dec 2014 (Local Time) from KPBX Reporting Station
Haze Haze  
Wind Chill: 44°   Ceiling: 600
Heat Index: 44°   Visibility: 1.5mi
Dew Point: 44°   Wind: 0mph
Humidity: 99%   Direction: NA
Pressure: 30.03"   Gusts: NA
Location:  37.28°N, 82.58°W
Report Text: KPBX 281035Z AUTO 00000KT 1 1/2SM BR OVC006 07/07 A3003 RMK AO2 T00670066
Loading
Personal Weather Stations






























Interactive Weather Map New forecast layout! Learn more

10-Day Weather Forecast

Advertisements
Track Severe Weather on mobile